AirNav   Free Bose QuietComfort 20
 
 1504 users online  

AK82 Campbell BLM Heliport
Anchorage, Alaska, USA

GOING TO ANCHORAGE?


FAA INFORMATION EFFECTIVE 05 DECEMBER 2019

Location

FAA Identifier: AK82
Lat/Long: 61-09-22.0700N 149-47-32.2800W
61-09.367833N 149-47.538000W
61.1561306,-149.7923000
(estimated)
Elevation: 235 ft. / 72 m (estimated)
Variation: 25E (1985)
From city: 4 miles SE of ANCHORAGE, AK
Time zone: UTC -9 (UTC -8 during Daylight Saving Time)
Zip code: 99507

Heliport Operations

Heliport use: Private use. Permission required prior to landing
Activation date: 01/1971
Control tower: no
ARTCC: ANCHORAGE CENTER
FSS: KENAI FLIGHT SERVICE STATION [907-283-7211]
Attendance: MON-FRI 0800-1700
Wind indicator: yes
Segmented circle: no

Heliport Communications

CTAF: 122.9
WX ASOS at MRI (4 nm NW): 124.25 (907-271-5277)
WX ASOS at LHD (5 nm W): PHONE 907-245-1618
WX ASOS at ANC (6 nm W): PHONE 907-271-5278
WX ASOS at FRN (8 nm NE): 125.0 (907-384-0132)
WX AWOS-3P at BCV (18 nm NE): 135.55 (907-688-0826)
  • 127.45

Nearby radio navigation aids

VOR radial/distance  VOR name  Freq  Var
TEDr080/4.9ANCHORAGE VOR/DME113.1518E
BGQr150/25.3BIG LAKE VORTAC112.5019E

 
NDB name  Hdg/Dist  Freq  Var  ID
CAMPBELL LAKE081/7.433816ECMQ -.-. -- --.-

Heliport Services

Airframe service: NONE
Powerplant service: NONE
Bottled oxygen: NONE
Bulk oxygen: NONE

Runway Information

Helipad H1

Dimensions: 100 x 90 ft. / 30 x 27 m
Surface: treated
Latitude: 61-09.367833N
Longitude: 149-47.538000W
Elevation: 235.0 ft.
Traffic pattern: leftleft
Markings: NSTD

Heliport Ownership and Management from official FAA records

Ownership: Publicly-owned
Owner: U S GOVT BLM
4700 BLM ROAD
ANCHORAGE, AK 99507
Phone (907) 267-1357
Manager: DAVE DOUCET
4700 BLM RD
ANCHORAGE, AK 99507
Phone (907) 267-1357

Heliport Operational Statistics

Aircraft operations: avg 31/week *
94% local general aviation
6% military
* for 12-month period ending 22 May 1979

Additional Remarks

RESTRICTED TO BLM USE ONLY.

Instrument Procedures

There are no published instrument procedures at AK82.

Some nearby airports with instrument procedures:

PAMR - Merrill Field Airport (4 nm NW)
PAED - Elmendorf Air Force Base (6 nm N)
PANC - Ted Stevens Anchorage International Airport (6 nm W)
PAFR - Bryant Army Airfield Heliport (8 nm NE)
PAGQ - Big Lake Airport (23 nm N)
 
Loc | Ops | Rwys | IFR | FBO | Links
Com | Nav | Svcs | Stats | Notes

Crowley
 
Area around AK82 (Campbell BLM Heliport)
 
Road maps at: MapQuest Bing Google
 
Aerial photo
No photo
 
Sectional chart

 
Airport distance calculator
Flying to Campbell BLM Heliport? Find the distance to fly.

From to AK82

Sunrise and sunset
Times for 05-Dec-2019
 Local
(UTC-9)
 Zulu
(UTC)
Morning civil twilight08:5517:55
Sunrise09:5418:54
Sunset15:4600:46
Evening civil twilight16:4501:45

Current date and time
Zulu (UTC)  05-Dec-2019 17:08:26
Local (UTC-9)  05-Dec-2019 08:08:26
 
METAR
PAMR 
4nm NW 
051653Z 35006KT 1SM BR VV003 M11/M13 A2985 RMK AO2 SLP110 T11111133 $
PALH 
5nm W 
051653Z 03007KT 1/2SM OVC005 M11/M13 A2987 RMK AO2 SFC VIS 10 SLP115 T11061128
PAED 
6nm N 
051655Z 01005KT 2SM BR OVC003 M12/M14 A2984 RMK SLP104 T11211137 $
PANC 
7nm W 
051653Z 35005KT 6SM BR OVC004 M11/M14 A2985 RMK AO2 SLP112 T11111139
PAFR 
8nm NE 
051658Z AUTO 04006KT 1 1/4SM -PL BR OVC003 M12/M13 A2980 RMK AO2 VIS 3/4V1 1/4 SLP107 P0000 FZRANO $
PABV 
18nm NE 
051656Z AUTO 13004KT 9SM -SN OVC003 M12/M13 A2987 RMK AO2 SNE06B46 SLP123 P0000 T11221133 FZRANO
TAF
PAED 
6nm N 
051525Z 0515/0617 02009KT 1600 BR OVC002 620024 QNH2984INS BECMG 0520/0521 01012KT 6000 BR SCT003 BKN020 620202 QNH2975INS BECMG 0608/0609 01012KT 3200 BR BKN007 620079 QNH2949INS TEMPO 0609/0617 1800 BR TXM10/0611Z TNM15/0518Z
PANC 
7nm W 
051559Z 0516/0618 35006KT 3SM BR OVC003 TEMPO 0516/0520 6SM BR SCT003 BKN010 FM052100 36004KT P6SM VCFG FEW003 BKN120 FM060600 01006KT P6SM VCSH SCT020 OVC050 FM061000 36004KT 5SM -SHSN BR OVC010
NOTAMs
Click for the latest NOTAMs
NOTAMs are issued by the DoD/FAA and will open in a separate window not controlled by AirNav.

 

 
 

Would you like to see your business listed on this page?

 If your business provides an interesting product or service to pilots, flight crews, aircraft, or users of the Campbell BLM Heliport, you should consider listing it here.  To start the listing process, click on the button below
 
Add a business
 

Other Pages about Campbell BLM Heliport

Update a link
 
Copyright © AirNav, LLC. All rights reserved. Privacy Policy  Contact